createdAt,value
2022-12-05T00:00:38.162Z,99.99
2022-12-05T00:01:38.156Z,99.99
2022-12-05T00:02:38.171Z,99.99
2022-12-05T00:03:38.119Z,99.99
2022-12-05T00:04:38.120Z,99.99
2022-12-05T00:05:38.105Z,99.99
2022-12-05T00:06:38.079Z,99.99
2022-12-05T00:07:38.106Z,99.99
2022-12-05T00:08:38.065Z,99.99
2022-12-05T00:09:38.041Z,99.99
2022-12-05T00:10:38.105Z,99.99
2022-12-05T00:11:38.024Z,99.99
2022-12-05T00:12:38.027Z,99.99
2022-12-05T00:13:38.005Z,99.99
2022-12-05T00:14:38.087Z,99.99
2022-12-05T00:15:39.036Z,99.99
2022-12-05T00:16:38.076Z,99.99
2022-12-05T00:17:37.984Z,99.99
2022-12-05T00:18:38.004Z,99.99
2022-12-05T00:19:37.980Z,99.99
2022-12-05T00:20:38.000Z,99.99
2022-12-05T00:21:37.965Z,99.99
2022-12-05T00:22:37.964Z,99.99
2022-12-05T00:23:37.954Z,99.99
2022-12-05T00:24:37.927Z,99.99
2022-12-05T00:25:37.972Z,99.99
2022-12-05T00:26:37.918Z,99.99
2022-12-05T00:27:37.912Z,99.99
2022-12-05T00:28:37.922Z,99.99
2022-12-05T00:29:37.895Z,99.99
2022-12-05T00:30:37.907Z,99.99
2022-12-05T00:31:37.972Z,99.99
2022-12-05T00:32:37.875Z,99.99
2022-12-05T00:33:37.868Z,99.99
2022-12-05T00:34:37.872Z,99.99
2022-12-05T00:35:37.942Z,99.99
2022-12-05T00:36:37.848Z,99.99
2022-12-05T00:37:37.837Z,99.99
2022-12-05T00:38:37.837Z,99.99
2022-12-05T00:39:37.838Z,99.99
2022-12-05T00:40:37.867Z,99.99
2022-12-05T00:42:12.151Z,99.99
2022-12-05T00:42:37.790Z,99.99
2022-12-05T00:43:37.787Z,99.99
2022-12-05T00:44:37.774Z,99.99
2022-12-05T00:45:37.843Z,99.99
2022-12-05T00:46:37.851Z,99.99
2022-12-05T00:47:37.749Z,99.99
2022-12-05T00:48:37.752Z,99.99
2022-12-05T00:49:37.752Z,99.99
2022-12-05T00:50:37.763Z,99.99
2022-12-05T00:51:37.719Z,99.99
2022-12-05T00:52:37.714Z,99.99
2022-12-05T00:53:37.723Z,99.99
2022-12-05T00:54:38.709Z,99.99
2022-12-05T00:55:37.709Z,99.99
2022-12-05T00:56:38.680Z,99.99
2022-12-05T00:57:37.680Z,99.99
2022-12-05T00:58:37.721Z,99.99
2022-12-05T00:59:37.655Z,99.99
2022-12-05T01:00:37.686Z,99.99
2022-12-05T01:01:37.759Z,99.99
2022-12-05T01:02:37.694Z,99.99
2022-12-05T01:03:37.690Z,99.99
2022-12-05T01:04:37.630Z,99.99
2022-12-05T01:05:37.643Z,99.99
2022-12-05T01:06:37.615Z,99.99
2022-12-05T01:07:37.654Z,99.99
2022-12-05T01:08:37.596Z,99.99
2022-12-05T01:09:37.590Z,99.99
2022-12-05T01:10:37.619Z,99.99
2022-12-05T01:11:41.199Z,99.99
2022-12-05T01:12:38.566Z,99.99
2022-12-05T01:13:37.556Z,99.99
2022-12-05T01:14:37.563Z,99.99
2022-12-05T01:15:37.548Z,99.99
2022-12-05T01:16:37.657Z,99.99
2022-12-05T01:17:37.531Z,99.99
2022-12-05T01:18:37.528Z,99.99
2022-12-05T01:19:37.516Z,99.99
2022-12-05T01:20:37.516Z,99.99
2022-12-05T01:21:37.542Z,99.99
2022-12-05T01:22:37.486Z,99.99
2022-12-05T01:23:37.479Z,99.99
2022-12-05T01:24:37.483Z,99.99
2022-12-05T01:25:37.466Z,99.99
2022-12-05T01:26:37.493Z,99.99
2022-12-05T01:27:37.455Z,99.99
2022-12-05T01:28:37.633Z,99.99
2022-12-05T01:29:37.435Z,99.99
2022-12-05T01:30:37.432Z,99.99
2022-12-05T01:31:37.500Z,99.99
2022-12-05T01:32:37.408Z,99.99
2022-12-05T01:33:37.401Z,99.99
2022-12-05T01:34:37.408Z,99.99
2022-12-05T01:35:37.384Z,99.99
2022-12-05T01:36:37.412Z,99.99
2022-12-05T01:37:37.378Z,99.99
2022-12-05T01:38:37.375Z,99.99
2022-12-05T01:39:37.365Z,99.99
2022-12-05T01:40:37.354Z,99.99
2022-12-05T01:41:37.376Z,99.99
2022-12-05T01:42:37.334Z,99.99
2022-12-05T01:43:37.327Z,99.99
2022-12-05T01:44:37.325Z,99.99
2022-12-05T01:45:37.360Z,99.99
2022-12-05T01:46:37.335Z,99.99
2022-12-05T01:47:37.292Z,99.99
2022-12-05T01:48:37.294Z,99.99
2022-12-05T01:49:37.279Z,99.99
2022-12-05T01:50:37.278Z,99.99
2022-12-05T01:51:37.296Z,99.99
2022-12-05T01:52:37.265Z,99.99
2022-12-05T01:53:37.257Z,99.99
2022-12-05T01:54:37.275Z,99.99
2022-12-05T01:55:37.235Z,99.99
2022-12-05T01:56:37.261Z,99.99
2022-12-05T01:57:37.226Z,99.99
2022-12-05T01:58:37.216Z,99.99
2022-12-05T01:59:37.210Z,99.99
2022-12-05T02:00:37.207Z,99.99
2022-12-05T02:01:37.294Z,99.99
2022-12-05T02:02:37.239Z,99.99
2022-12-05T02:03:37.183Z,99.99
2022-12-05T02:04:37.184Z,99.99
2022-12-05T02:05:37.159Z,99.99
2022-12-05T02:06:37.182Z,99.99
2022-12-05T02:07:37.193Z,99.99
2022-12-05T02:08:37.164Z,99.99
2022-12-05T02:09:37.131Z,99.99
2022-12-05T02:10:37.121Z,99.99
2022-12-05T02:11:37.146Z,99.99
2022-12-05T02:12:38.945Z,99.99
2022-12-05T02:13:38.105Z,99.99
2022-12-05T02:14:37.092Z,99.99
2022-12-05T02:15:37.095Z,99.99
2022-12-05T02:16:37.175Z,99.99
2022-12-05T02:17:37.070Z,99.99
2022-12-05T02:18:37.061Z,99.99
2022-12-05T02:19:37.055Z,99.99
2022-12-05T02:20:37.070Z,99.99
2022-12-05T02:21:37.078Z,99.99
2022-12-05T02:22:37.040Z,99.99
2022-12-05T02:23:37.033Z,99.99
2022-12-05T02:24:37.023Z,99.99
2022-12-05T02:25:37.014Z,99.99
2022-12-05T02:26:37.041Z,99.99
2022-12-05T02:27:37.002Z,99.99
2022-12-05T02:28:37.004Z,99.99
2022-12-05T02:29:36.983Z,99.99
2022-12-05T02:30:36.981Z,99.99
2022-12-05T02:31:37.088Z,99.99
2022-12-05T02:32:36.970Z,99.99
2022-12-05T02:33:36.957Z,99.99
2022-12-05T02:34:36.949Z,99.99
2022-12-05T02:35:36.944Z,99.99
2022-12-05T02:36:36.966Z,99.99
2022-12-05T02:37:36.931Z,99.99
2022-12-05T02:38:36.919Z,99.99
2022-12-05T02:39:36.935Z,99.99
2022-12-05T02:40:36.908Z,99.99
2022-12-05T02:41:36.921Z,99.99
2022-12-05T02:42:36.901Z,99.99
2022-12-05T02:43:36.880Z,99.99
2022-12-05T02:44:36.877Z,99.99
2022-12-05T02:45:36.943Z,99.99
2022-12-05T02:46:36.896Z,99.99
2022-12-05T02:47:36.853Z,99.99
2022-12-05T02:48:36.865Z,99.99
2022-12-05T02:49:36.856Z,99.99
2022-12-05T02:50:36.827Z,99.99
2022-12-05T02:51:36.851Z,99.99
2022-12-05T02:52:36.816Z,99.99
2022-12-05T02:53:36.805Z,99.99
2022-12-05T02:54:36.814Z,99.99
2022-12-05T02:55:36.796Z,99.99
2022-12-05T02:56:36.818Z,99.99
2022-12-05T02:57:36.775Z,99.99
2022-12-05T02:58:36.771Z,99.99
2022-12-05T02:59:36.760Z,99.99
2022-12-05T03:00:36.751Z,99.99
2022-12-05T03:01:36.845Z,99.99
2022-12-05T03:02:36.738Z,99.99
2022-12-05T03:03:36.745Z,99.99
2022-12-05T03:04:36.771Z,99.99
2022-12-05T03:05:36.724Z,99.99
2022-12-05T03:06:36.713Z,99.99
2022-12-05T03:07:36.775Z,99.99
2022-12-05T03:08:36.693Z,99.99
2022-12-05T03:09:36.684Z,99.99
2022-12-05T03:10:36.679Z,99.99
2022-12-05T03:11:36.670Z,99.99
2022-12-05T03:12:36.698Z,99.99
2022-12-05T03:13:36.657Z,99.99
2022-12-05T03:14:36.645Z,99.99
2022-12-05T03:15:36.635Z,99.99
2022-12-05T03:16:36.642Z,99.99
2022-12-05T03:17:36.654Z,99.99
2022-12-05T03:18:36.620Z,99.99
2022-12-05T03:19:36.607Z,99.99
2022-12-05T03:20:36.596Z,99.99
2022-12-05T03:21:36.606Z,99.99
2022-12-05T03:22:36.608Z,99.99
2022-12-05T03:23:36.573Z,99.99
2022-12-05T03:24:36.564Z,99.99
2022-12-05T03:25:36.565Z,99.99
2022-12-05T03:26:36.557Z,99.99
2022-12-05T03:27:36.587Z,99.99
2022-12-05T03:28:36.534Z,99.99
2022-12-05T03:29:36.531Z,99.99
2022-12-05T03:30:36.592Z,99.99
2022-12-05T03:31:36.509Z,99.99
2022-12-05T03:32:36.530Z,99.99
2022-12-05T03:33:36.508Z,99.99
2022-12-05T03:34:36.486Z,99.99
2022-12-05T03:35:36.481Z,99.99
2022-12-05T03:36:36.478Z,99.99
2022-12-05T03:37:36.492Z,99.99
2022-12-05T03:38:36.458Z,99.99
2022-12-05T03:39:36.455Z,99.99
2022-12-05T03:40:36.441Z,99.99
2022-12-05T03:41:36.439Z,99.99
2022-12-05T03:42:36.457Z,99.99
2022-12-05T03:43:36.417Z,99.99
2022-12-05T03:44:36.414Z,99.99
2022-12-05T03:45:36.455Z,99.99
2022-12-05T03:46:36.446Z,99.99
2022-12-05T03:47:36.417Z,99.99
2022-12-05T03:48:36.374Z,99.99
2022-12-05T03:49:36.386Z,99.99
2022-12-05T03:50:36.372Z,99.99
2022-12-05T03:51:36.356Z,99.99
2022-12-05T03:52:56.857Z,99.99
2022-12-05T03:53:38.338Z,99.99
2022-12-05T03:54:36.326Z,99.99
2022-12-05T03:55:36.321Z,99.99
2022-12-05T03:56:36.323Z,99.99
2022-12-05T03:57:36.308Z,99.99
2022-12-05T03:58:36.340Z,99.99
2022-12-05T03:59:36.298Z,99.99
2022-12-05T04:00:36.288Z,99.99
2022-12-05T04:01:36.333Z,99.99
2022-12-05T04:02:36.271Z,99.99
2022-12-05T04:03:36.313Z,99.99
2022-12-05T04:04:36.283Z,99.99
2022-12-05T04:05:36.257Z,99.99
2022-12-05T04:06:36.236Z,99.99
2022-12-05T04:07:36.289Z,99.99
2022-12-05T04:08:36.253Z,99.99
2022-12-05T04:09:36.218Z,99.99
2022-12-05T04:10:36.201Z,99.99
2022-12-05T04:11:36.202Z,99.99
2022-12-05T04:12:36.187Z,99.99
2022-12-05T04:13:36.262Z,99.99
2022-12-05T04:14:36.172Z,99.99
2022-12-05T04:15:36.224Z,99.99
2022-12-05T04:16:36.165Z,99.99
2022-12-05T04:17:36.151Z,99.99
2022-12-05T04:18:36.187Z,99.99
2022-12-05T04:19:36.133Z,99.99
2022-12-05T04:20:36.125Z,99.99
2022-12-05T04:21:36.122Z,99.99
2022-12-05T04:22:36.110Z,99.99
2022-12-05T04:23:36.131Z,99.99
2022-12-05T04:24:36.106Z,99.99
2022-12-05T04:25:36.094Z,99.99
2022-12-05T04:26:36.083Z,99.99
2022-12-05T04:27:36.075Z,99.99
2022-12-05T04:28:36.104Z,99.99
2022-12-05T04:29:36.071Z,99.99
2022-12-05T04:30:36.055Z,99.99
2022-12-05T04:31:36.075Z,99.99
2022-12-05T04:32:36.040Z,99.99
2022-12-05T04:33:36.070Z,99.99
2022-12-05T04:34:36.050Z,99.99
2022-12-05T04:35:36.038Z,99.99
2022-12-05T04:36:36.017Z,99.99
2022-12-05T04:37:36.016Z,99.99
2022-12-05T04:38:35.999Z,99.99
2022-12-05T04:39:36.022Z,99.99
2022-12-05T04:40:35.987Z,99.99
2022-12-05T04:41:35.976Z,99.99
2022-12-05T04:42:35.972Z,99.99
2022-12-05T04:43:35.982Z,99.99
2022-12-05T04:44:35.981Z,99.99
2022-12-05T04:45:35.948Z,99.99
2022-12-05T04:46:35.971Z,99.99
2022-12-05T04:47:35.935Z,99.99
2022-12-05T04:48:35.923Z,99.99
2022-12-05T04:49:35.949Z,99.99
2022-12-05T04:50:35.914Z,99.99
2022-12-05T04:51:35.907Z,99.99
2022-12-05T04:52:35.892Z,99.99
2022-12-05T04:53:35.887Z,99.99
2022-12-05T04:54:35.907Z,99.99
2022-12-05T04:55:35.876Z,99.99
2022-12-05T04:56:35.861Z,99.99
2022-12-05T04:57:35.856Z,99.99
2022-12-05T04:58:35.849Z,99.99
2022-12-05T04:59:35.868Z,99.99
2022-12-05T05:00:35.828Z,99.99
2022-12-05T05:01:35.949Z,99.99
2022-12-05T05:02:35.857Z,99.99
2022-12-05T05:03:35.812Z,99.99
2022-12-05T05:04:35.828Z,99.99
2022-12-05T05:05:35.793Z,99.99
2022-12-05T05:06:35.786Z,99.99
2022-12-05T05:07:35.823Z,99.99
2022-12-05T05:08:36.791Z,99.99
2022-12-05T05:09:35.788Z,99.99
2022-12-05T05:10:35.754Z,99.99
2022-12-05T05:11:35.757Z,99.99
2022-12-05T05:12:35.747Z,99.99
2022-12-05T05:13:35.732Z,99.99
2022-12-05T05:14:35.754Z,99.99
2022-12-05T05:15:35.760Z,99.99
2022-12-05T05:16:35.779Z,99.99
2022-12-05T05:17:35.708Z,99.99
2022-12-05T05:18:35.703Z,99.99
2022-12-05T05:19:35.720Z,99.99
2022-12-05T05:20:35.683Z,99.99
2022-12-05T05:21:35.680Z,99.99
2022-12-05T05:22:35.661Z,99.99
2022-12-05T05:23:35.659Z,99.99
2022-12-05T05:24:35.684Z,99.99
2022-12-05T05:25:35.640Z,99.99
2022-12-05T05:26:35.682Z,99.99
2022-12-05T05:27:35.631Z,99.99
2022-12-05T05:28:35.628Z,99.99
2022-12-05T05:29:35.661Z,99.99
2022-12-05T05:30:35.610Z,99.99
2022-12-05T05:31:35.627Z,99.99
2022-12-05T05:32:35.600Z,99.99
2022-12-05T05:33:35.591Z,99.99
2022-12-05T05:34:35.606Z,99.99
2022-12-05T05:35:35.574Z,99.99
2022-12-05T05:36:35.562Z,99.99
2022-12-05T05:37:35.561Z,99.99
2022-12-05T05:38:35.561Z,99.99
2022-12-05T05:39:35.541Z,99.99
2022-12-05T05:40:35.560Z,99.99
2022-12-05T05:41:35.531Z,99.99
2022-12-05T05:42:35.517Z,99.99
2022-12-05T05:43:35.512Z,99.99
2022-12-05T05:44:35.512Z,99.99
2022-12-05T05:45:35.527Z,99.99
2022-12-05T05:46:35.604Z,99.99
2022-12-05T05:47:35.501Z,99.99
2022-12-05T05:48:35.476Z,99.99
2022-12-05T05:49:35.463Z,99.99
2022-12-05T05:50:35.499Z,99.99
2022-12-05T05:51:35.456Z,99.99
2022-12-05T05:52:35.447Z,99.99
2022-12-05T05:53:35.432Z,99.99
2022-12-05T05:54:35.428Z,99.99
2022-12-05T05:55:35.444Z,99.99
2022-12-05T05:56:35.414Z,99.99
2022-12-05T05:57:35.405Z,99.99
2022-12-05T05:58:35.402Z,99.99
2022-12-05T05:59:35.387Z,99.99
2022-12-05T06:00:35.447Z,99.99
2022-12-05T06:01:35.374Z,99.99
2022-12-05T06:02:35.497Z,99.99
2022-12-05T06:03:35.548Z,99.99
2022-12-05T06:04:35.357Z,99.99
2022-12-05T06:05:35.368Z,99.99
2022-12-05T06:06:35.352Z,99.99
2022-12-05T06:07:35.381Z,99.99
2022-12-05T06:08:35.321Z,99.99
2022-12-05T06:09:35.327Z,99.99
2022-12-05T06:10:35.330Z,99.99
2022-12-05T06:11:35.302Z,99.99
2022-12-05T06:12:35.301Z,99.99
2022-12-05T06:13:35.284Z,99.99
2022-12-05T06:14:35.276Z,99.99
2022-12-05T06:15:35.306Z,99.99
2022-12-05T06:16:35.302Z,99.99
2022-12-05T06:17:35.254Z,99.99
2022-12-05T06:18:35.254Z,99.99
2022-12-05T06:19:35.241Z,99.99
2022-12-05T06:20:35.294Z,99.99
2022-12-05T06:21:35.222Z,99.99
2022-12-05T06:22:35.211Z,99.99
2022-12-05T06:23:35.199Z,99.99
2022-12-05T06:24:35.201Z,99.99
2022-12-05T06:25:35.221Z,99.99
2022-12-05T06:26:35.189Z,99.99
2022-12-05T06:27:35.181Z,99.99
2022-12-05T06:28:35.210Z,99.99
2022-12-05T06:29:35.276Z,99.99
2022-12-05T06:30:35.157Z,99.99
2022-12-05T06:31:35.253Z,99.99
2022-12-05T06:32:35.136Z,99.99
2022-12-05T06:33:35.131Z,99.99
2022-12-05T06:34:35.127Z,99.99
2022-12-05T06:35:35.117Z,99.99
2022-12-05T06:36:35.137Z,99.99
2022-12-05T06:37:35.107Z,99.99
2022-12-05T06:38:39.034Z,99.99
2022-12-05T06:39:37.086Z,99.99
2022-12-05T06:40:35.078Z,99.99
2022-12-05T06:42:08.730Z,99.99
2022-12-05T06:42:35.069Z,99.99
2022-12-05T06:43:35.059Z,99.99
2022-12-05T06:44:35.057Z,99.99
2022-12-05T06:45:35.091Z,99.99
2022-12-05T06:46:35.055Z,99.99
2022-12-05T06:47:35.026Z,99.99
2022-12-05T06:48:35.104Z,99.99
2022-12-05T06:49:38.110Z,99.99
2022-12-05T06:50:36.011Z,99.99
2022-12-05T06:51:35.020Z,99.99
2022-12-05T06:52:34.976Z,99.99
2022-12-05T06:53:35.982Z,99.99
2022-12-05T06:54:34.976Z,99.99
2022-12-05T06:55:34.969Z,99.99
2022-12-05T06:56:35.078Z,99.99
2022-12-05T06:57:34.948Z,99.99
2022-12-05T06:58:35.939Z,99.99
2022-12-05T06:59:34.954Z,99.99
2022-12-05T07:00:34.932Z,99.99
2022-12-05T07:01:34.976Z,99.99
2022-12-05T07:02:34.974Z,99.99
2022-12-05T07:03:34.907Z,99.99
2022-12-05T07:04:34.890Z,99.99
2022-12-05T07:05:34.886Z,99.99
2022-12-05T07:06:34.988Z,99.99
2022-12-05T07:07:35.028Z,99.99
2022-12-05T07:08:34.868Z,99.99
2022-12-05T07:09:34.850Z,99.99
2022-12-05T07:10:34.847Z,99.99
2022-12-05T07:11:34.860Z,99.99
2022-12-05T07:12:34.827Z,99.99
2022-12-05T07:13:34.886Z,99.99
2022-12-05T07:14:50.575Z,99.99
2022-12-05T07:15:36.815Z,99.99
2022-12-05T07:16:34.912Z,99.99
2022-12-05T07:17:34.793Z,99.99
2022-12-05T07:18:34.783Z,99.99
2022-12-05T07:19:34.786Z,99.99
2022-12-05T07:21:03.392Z,99.99
2022-12-05T07:21:36.788Z,99.99
2022-12-05T07:22:34.773Z,99.99
2022-12-05T07:23:34.745Z,99.99
2022-12-05T07:24:34.748Z,99.99
2022-12-05T07:25:34.745Z,99.99
2022-12-05T07:26:34.757Z,99.99
2022-12-05T07:27:34.716Z,99.99
2022-12-05T07:28:34.714Z,99.99
2022-12-05T07:29:34.702Z,99.99
2022-12-05T07:30:34.693Z,99.99
2022-12-05T07:31:34.754Z,99.99
2022-12-05T07:32:34.675Z,99.99
2022-12-05T07:33:34.665Z,99.99
2022-12-05T07:34:34.676Z,99.99
2022-12-05T07:35:34.657Z,99.99
2022-12-05T07:36:34.684Z,99.99
2022-12-05T07:37:34.655Z,99.99
2022-12-05T07:38:34.637Z,99.99
2022-12-05T07:39:34.628Z,99.99
2022-12-05T07:40:34.619Z,99.99
2022-12-05T07:41:34.608Z,99.99
2022-12-05T07:42:35.921Z,99.99
2022-12-05T07:43:34.589Z,99.99
2022-12-05T07:44:34.594Z,99.99
2022-12-05T07:45:34.606Z,99.99
2022-12-05T07:46:34.604Z,99.99
2022-12-05T07:47:34.765Z,99.99
2022-12-05T07:48:34.585Z,99.99
2022-12-05T07:49:34.558Z,99.99
2022-12-05T07:50:34.544Z,99.99
2022-12-05T07:51:34.548Z,99.99
2022-12-05T07:52:34.557Z,99.99
2022-12-05T07:53:34.519Z,99.99
2022-12-05T07:54:34.519Z,99.99
2022-12-05T07:55:34.499Z,99.99
2022-12-05T07:56:35.497Z,99.99
2022-12-05T07:57:34.512Z,99.99
2022-12-05T07:58:34.482Z,99.99
2022-12-05T07:59:34.476Z,99.99
2022-12-05T08:00:34.479Z,99.99
2022-12-05T08:01:34.528Z,99.99
2022-12-05T08:02:37.718Z,99.99
2022-12-05T08:03:35.440Z,99.99
2022-12-05T08:04:34.435Z,99.99
2022-12-05T08:05:34.424Z,99.99
2022-12-05T08:06:35.229Z,99.99
2022-12-05T08:07:34.484Z,99.99
2022-12-05T08:08:34.402Z,99.99
2022-12-05T08:09:34.401Z,99.99
2022-12-05T08:10:34.397Z,99.99
2022-12-05T08:11:34.381Z,99.99
2022-12-05T08:12:34.397Z,99.99
2022-12-05T08:13:34.380Z,99.99
2022-12-05T08:14:34.358Z,99.99
2022-12-05T08:15:34.349Z,99.99
2022-12-05T08:16:34.390Z,99.99
2022-12-05T08:17:34.367Z,99.99
2022-12-05T08:18:34.328Z,99.99
2022-12-05T08:19:34.325Z,99.99
2022-12-05T08:20:34.329Z,99.99
2022-12-05T08:21:34.317Z,99.99
2022-12-05T08:22:34.327Z,99.99
2022-12-05T08:23:34.295Z,99.99
2022-12-05T08:24:34.286Z,99.99
2022-12-05T08:25:34.268Z,99.99
2022-12-05T08:26:34.264Z,99.99
2022-12-05T08:27:34.290Z,99.99
2022-12-05T08:28:34.246Z,99.99
2022-12-05T08:29:34.279Z,99.99
2022-12-05T08:30:34.276Z,99.99
2022-12-05T08:31:34.269Z,99.99
2022-12-05T08:32:34.257Z,99.99
2022-12-05T08:33:34.214Z,99.99
2022-12-05T08:34:34.209Z,99.99
2022-12-05T08:35:34.204Z,99.99
2022-12-05T08:36:34.190Z,99.99
2022-12-05T08:37:34.224Z,99.99
2022-12-05T08:38:34.173Z,99.99
2022-12-05T08:39:38.440Z,99.99
2022-12-05T08:40:35.162Z,99.99
2022-12-05T08:41:34.160Z,99.99
2022-12-05T08:42:34.167Z,99.99
2022-12-05T08:43:34.142Z,99.99
2022-12-05T08:44:34.134Z,99.99
2022-12-05T08:45:34.124Z,99.99
2022-12-05T08:46:34.182Z,99.99
2022-12-05T08:47:34.143Z,99.99
2022-12-05T08:48:34.104Z,99.99
2022-12-05T08:49:34.099Z,99.99
2022-12-05T08:50:34.089Z,99.99
2022-12-05T08:51:34.071Z,99.99
2022-12-05T08:52:34.089Z,99.99
2022-12-05T08:53:34.064Z,99.99
2022-12-05T08:54:34.050Z,99.99
2022-12-05T08:55:34.156Z,99.99
2022-12-05T08:56:34.036Z,99.99
2022-12-05T08:57:34.064Z,99.99
2022-12-05T08:58:34.023Z,99.99
2022-12-05T08:59:34.015Z,99.99
2022-12-05T09:00:35.006Z,99.99
2022-12-05T09:01:34.119Z,99.99
2022-12-05T09:02:34.074Z,99.99
2022-12-05T09:03:33.983Z,99.99
2022-12-05T09:04:34.009Z,99.99
2022-12-05T09:05:33.997Z,99.99
2022-12-05T09:06:33.966Z,99.99
2022-12-05T09:07:34.039Z,99.99
2022-12-05T09:08:33.946Z,99.99
2022-12-05T09:09:33.940Z,99.99
2022-12-05T09:10:33.943Z,99.99
2022-12-05T09:11:33.922Z,99.99
2022-12-05T09:12:33.938Z,99.99
2022-12-05T09:13:33.914Z,99.99
2022-12-05T09:14:33.898Z,99.99
2022-12-05T09:15:33.948Z,99.99
2022-12-05T09:16:37.875Z,99.99
2022-12-05T09:17:34.897Z,99.99
2022-12-05T09:18:33.862Z,99.99
2022-12-05T09:19:33.859Z,99.99
2022-12-05T09:20:33.872Z,99.99
2022-12-05T09:21:33.909Z,99.99
2022-12-05T09:22:33.863Z,99.99
2022-12-05T09:23:33.830Z,99.99
2022-12-05T09:24:33.819Z,99.99
2022-12-05T09:25:33.824Z,99.99
2022-12-05T09:26:33.808Z,99.99
2022-12-05T09:27:33.836Z,99.99
2022-12-05T09:28:33.796Z,99.99
2022-12-05T09:29:33.787Z,99.99
2022-12-05T09:30:33.780Z,99.99
2022-12-05T09:31:33.870Z,99.99
2022-12-05T09:32:33.767Z,99.99
2022-12-05T09:33:33.782Z,99.99
2022-12-05T09:34:33.748Z,99.99
2022-12-05T09:35:33.743Z,99.99
2022-12-05T09:36:33.735Z,99.99
2022-12-05T09:37:40.901Z,99.90
2022-12-05T09:38:35.749Z,99.90
2022-12-05T09:39:33.719Z,99.99
2022-12-05T09:40:33.738Z,99.99
2022-12-05T09:41:33.696Z,99.94
2022-12-05T09:42:33.684Z,99.99
2022-12-05T09:43:33.720Z,99.94
2022-12-05T09:44:33.669Z,99.99
2022-12-05T09:45:33.663Z,99.99
2022-12-05T09:46:35.755Z,99.99
2022-12-05T09:47:34.648Z,99.99
2022-12-05T09:48:33.668Z,99.99
2022-12-05T09:49:33.634Z,99.99
2022-12-05T09:50:33.627Z,99.99
2022-12-05T09:51:33.620Z,99.99
2022-12-05T09:52:33.615Z,99.99
2022-12-05T09:53:33.629Z,99.99
2022-12-05T09:54:33.600Z,99.99
2022-12-05T09:55:33.583Z,99.99
2022-12-05T09:56:33.582Z,99.84
2022-12-05T09:57:34.148Z,99.99
2022-12-05T09:58:34.603Z,99.94
2022-12-05T09:59:33.559Z,99.84
2022-12-05T10:00:33.557Z,99.99
2022-12-05T10:01:33.601Z,99.99
2022-12-05T10:02:33.534Z,99.99
2022-12-05T10:03:33.551Z,99.99
2022-12-05T10:04:33.668Z,99.99
2022-12-05T10:05:33.513Z,99.99
2022-12-05T10:06:33.513Z,99.99
2022-12-05T10:07:33.549Z,99.99
2022-12-05T10:08:33.523Z,99.99
2022-12-05T10:09:33.482Z,99.99
2022-12-05T10:10:33.471Z,99.99
2022-12-05T10:11:33.461Z,99.79
2022-12-05T10:12:33.457Z,99.99
2022-12-05T10:13:33.472Z,99.99
2022-12-05T10:14:33.438Z,99.85
2022-12-05T10:15:33.506Z,99.99
2022-12-05T10:16:33.529Z,99.99
2022-12-05T10:17:33.412Z,99.37
2022-12-05T10:18:33.441Z,99.99
2022-12-05T10:19:33.414Z,99.99
2022-12-05T10:20:33.389Z,99.99
2022-12-05T10:21:33.385Z,99.90
2022-12-05T10:22:33.391Z,99.99
2022-12-05T10:23:59.478Z,99.99
2022-12-05T10:24:35.367Z,99.90
2022-12-05T10:25:33.359Z,99.99
2022-12-05T10:26:33.348Z,99.90
2022-12-05T10:27:39.549Z,99.99
2022-12-05T10:28:35.366Z,99.99
2022-12-05T10:29:33.326Z,99.99
2022-12-05T10:30:33.328Z,99.95
2022-12-05T10:31:33.356Z,99.99
2022-12-05T10:32:33.305Z,99.99
2022-12-05T10:33:33.330Z,99.99
2022-12-05T10:34:33.300Z,99.99
2022-12-05T10:35:33.283Z,99.99
2022-12-05T10:36:33.275Z,99.90
2022-12-05T10:37:33.274Z,99.99
2022-12-05T10:38:33.269Z,99.99
2022-12-05T10:39:33.281Z,99.99
2022-12-05T10:40:33.272Z,99.95
2022-12-05T10:41:33.238Z,99.99
2022-12-05T10:42:33.235Z,99.99
2022-12-05T10:43:33.233Z,99.95
2022-12-05T10:44:33.236Z,99.99
2022-12-05T10:45:33.209Z,99.99
2022-12-05T10:46:33.240Z,99.99
2022-12-05T10:47:33.193Z,99.99
2022-12-05T10:48:33.187Z,99.99
2022-12-05T10:49:33.200Z,99.99
2022-12-05T10:50:33.172Z,99.95
2022-12-05T10:51:37.528Z,99.99
2022-12-05T10:52:34.156Z,99.85
2022-12-05T10:53:33.147Z,99.99
2022-12-05T10:54:33.171Z,99.95
2022-12-05T10:55:33.131Z,99.99
2022-12-05T10:56:33.123Z,99.99
2022-12-05T10:57:33.127Z,99.99
2022-12-05T10:58:33.114Z,99.85
2022-12-05T10:59:33.131Z,99.64
2022-12-05T11:00:33.098Z,99.74
2022-12-05T11:01:33.125Z,99.85
2022-12-05T11:02:33.085Z,99.74
2022-12-05T11:03:33.074Z,99.74
2022-12-05T11:04:33.099Z,99.33
2022-12-05T11:05:33.126Z,99.74
2022-12-05T11:06:33.053Z,99.74
2022-12-05T11:07:33.093Z,99.33
2022-12-05T11:09:02.710Z,99.85
2022-12-05T11:09:35.054Z,99.70
2022-12-05T11:10:33.018Z,99.64
2022-12-05T11:11:33.008Z,99.59
2022-12-05T11:12:33.008Z,99.38
2022-12-05T11:13:33.003Z,99.95
2022-12-05T11:14:33.023Z,99.22
2022-12-05T11:15:32.985Z,99.38
2022-12-05T11:16:33.162Z,99.12
2022-12-05T11:17:32.966Z,98.97
2022-12-05T11:18:32.964Z,99.38
2022-12-05T11:19:32.995Z,99.49
2022-12-05T11:20:32.960Z,98.55
2022-12-05T11:21:32.940Z,98.71
2022-12-05T11:22:32.936Z,99.54
2022-12-05T11:23:32.929Z,99.54
2022-12-05T11:24:32.947Z,99.18
2022-12-05T11:25:32.914Z,99.22
2022-12-05T11:26:32.907Z,99.43
2022-12-05T11:27:32.893Z,99.02
2022-12-05T11:28:32.961Z,99.85
2022-12-05T11:29:32.876Z,99.99
2022-12-05T11:30:32.896Z,99.85
2022-12-05T11:31:32.948Z,99.49
2022-12-05T11:32:32.849Z,99.54
2022-12-05T11:33:32.850Z,99.28
2022-12-05T11:34:32.869Z,99.43
2022-12-05T11:35:32.833Z,99.74
2022-12-05T11:36:32.823Z,99.33
2022-12-05T11:37:32.818Z,99.99
2022-12-05T11:38:32.816Z,99.91
2022-12-05T11:39:33.862Z,99.91
2022-12-05T11:40:37.759Z,99.59
2022-12-05T11:41:34.788Z,99.80
2022-12-05T11:42:32.779Z,99.33
2022-12-05T11:43:32.768Z,99.38
2022-12-05T11:44:32.770Z,99.99
2022-12-05T11:45:32.781Z,99.91
2022-12-05T11:46:32.796Z,99.54
2022-12-05T11:47:32.735Z,99.99
2022-12-05T11:48:32.724Z,99.80
2022-12-05T11:49:33.727Z,99.49
2022-12-05T11:50:32.747Z,99.49
2022-12-05T11:51:32.712Z,99.59
2022-12-05T11:52:36.087Z,99.70
2022-12-05T11:53:34.710Z,99.80
2022-12-05T11:55:03.443Z,99.70
2022-12-05T11:55:34.702Z,99.86
2022-12-05T11:56:32.675Z,99.80
2022-12-05T11:57:32.660Z,99.44
2022-12-05T11:58:32.657Z,99.65
2022-12-05T11:59:32.652Z,99.76
2022-12-05T12:00:32.665Z,99.65
2022-12-05T12:01:32.735Z,99.86
2022-12-05T12:02:32.738Z,99.34
2022-12-05T12:03:33.653Z,98.10
2022-12-05T12:04:33.614Z,98.86
2022-12-05T12:05:32.632Z,98.35
2022-12-05T12:06:32.603Z,98.45
2022-12-05T12:07:32.616Z,98.66
2022-12-05T12:08:32.591Z,99.44
2022-12-05T12:09:32.578Z,99.24
2022-12-05T12:10:32.604Z,98.82
2022-12-05T12:11:32.574Z,99.13
2022-12-05T12:12:32.557Z,99.34
2022-12-05T12:13:32.551Z,99.19
2022-12-05T12:14:32.534Z,98.82
2022-12-05T12:15:32.582Z,98.41
2022-12-05T12:16:32.591Z,98.61
2022-12-05T12:17:32.522Z,98.47
2022-12-05T12:18:32.516Z,99.13
2022-12-05T12:19:32.504Z,99.44
2022-12-05T12:20:32.529Z,99.34
2022-12-05T12:21:38.269Z,99.24
2022-12-05T12:22:34.491Z,99.09
2022-12-05T12:23:32.496Z,98.72
2022-12-05T12:24:32.477Z,99.03
2022-12-05T12:25:32.454Z,98.51
2022-12-05T12:26:32.535Z,98.72
2022-12-05T12:27:32.440Z,98.61
2022-12-05T12:28:32.435Z,98.72
2022-12-05T12:29:32.424Z,99.24
2022-12-05T12:30:32.420Z,99.38
2022-12-05T12:31:32.473Z,99.44
2022-12-05T12:32:32.397Z,99.44
2022-12-05T12:33:32.409Z,99.34
2022-12-05T12:34:32.389Z,99.18
2022-12-05T12:35:32.388Z,99.07
2022-12-05T12:36:32.400Z,99.49
2022-12-05T12:37:32.365Z,99.49
2022-12-05T12:38:32.365Z,99.85
2022-12-05T12:39:32.354Z,99.49
2022-12-05T12:40:32.345Z,99.33
2022-12-05T12:41:32.364Z,99.12
2022-12-05T12:43:08.291Z,99.43
2022-12-05T12:43:53.179Z,99.95
2022-12-05T12:44:34.313Z,99.85
2022-12-05T12:45:32.360Z,99.64
2022-12-05T12:46:32.397Z,99.54
2022-12-05T12:47:32.289Z,99.91
2022-12-05T12:48:32.278Z,99.33
2022-12-05T12:49:32.272Z,99.59
2022-12-05T12:50:32.262Z,99.99
2022-12-05T12:51:32.285Z,99.70
2022-12-05T12:52:32.254Z,99.64